createdAt,value
2022-10-18T00:01:08.847Z,62.71
2022-10-18T00:06:10.855Z,63.00
2022-10-18T00:08:40.044Z,62.94
2022-10-18T00:11:08.361Z,63.03
2022-10-18T00:13:37.906Z,63.05
2022-10-18T00:16:11.899Z,62.98
2022-10-18T00:18:40.107Z,63.04
2022-10-18T00:21:13.863Z,62.97
2022-10-18T00:23:43.130Z,63.05
2022-10-18T00:26:14.870Z,62.99
2022-10-18T00:28:43.460Z,62.95
2022-10-18T00:31:13.384Z,63.02
2022-10-18T00:33:42.857Z,63.21
2022-10-18T00:36:11.933Z,62.99
2022-10-18T00:38:40.447Z,63.17
2022-10-18T00:41:09.911Z,63.21
2022-10-18T00:43:57.564Z,63.20
2022-10-18T00:46:30.705Z,63.15
2022-10-18T00:49:00.549Z,63.12
2022-10-18T00:51:35.450Z,63.26
2022-10-18T00:54:03.328Z,63.35
2022-10-18T00:56:33.795Z,63.24
2022-10-18T00:59:01.874Z,63.25
2022-10-18T01:01:30.251Z,63.35
2022-10-18T01:03:58.203Z,63.32
2022-10-18T01:06:28.395Z,63.37
2022-10-18T01:09:20.762Z,63.60
2022-10-18T01:12:19.429Z,63.65
2022-10-18T01:14:55.423Z,63.62
2022-10-18T01:17:35.770Z,63.60
2022-10-18T01:20:18.281Z,63.54
2022-10-18T01:23:01.375Z,63.73
2022-10-18T01:25:53.558Z,63.73
2022-10-18T01:28:53.606Z,63.64
2022-10-18T01:31:31.356Z,63.83
2022-10-18T01:34:20.427Z,63.88
2022-10-18T01:36:52.308Z,63.85
2022-10-18T01:39:26.739Z,63.94
2022-10-18T01:41:57.770Z,63.81
2022-10-18T01:44:29.708Z,63.86
2022-10-18T01:46:59.634Z,63.98
2022-10-18T01:49:28.515Z,64.25
2022-10-18T01:51:56.363Z,64.28
2022-10-18T01:54:39.358Z,64.14
2022-10-18T01:57:19.813Z,64.06
2022-10-18T01:59:56.259Z,64.05
2022-10-18T02:02:50.061Z,64.18
2022-10-18T02:05:57.898Z,64.08
2022-10-18T02:08:30.840Z,64.32
2022-10-18T02:11:10.608Z,64.41
2022-10-18T02:14:00.529Z,64.40
2022-10-18T02:16:37.685Z,64.36
2022-10-18T02:19:13.004Z,64.34
2022-10-18T02:21:43.613Z,64.45
2022-10-18T02:24:14.406Z,64.42
2022-10-18T02:26:42.662Z,64.49
2022-10-18T02:29:11.564Z,64.58
2022-10-18T02:31:49.670Z,64.64
2022-10-18T02:34:24.033Z,64.68
2022-10-18T02:36:59.421Z,64.70
2022-10-18T02:39:31.317Z,64.72
2022-10-18T02:42:00.366Z,64.77
2022-10-18T02:44:28.080Z,64.81
2022-10-18T02:46:57.012Z,64.96
2022-10-18T02:49:24.767Z,64.89
2022-10-18T02:51:52.528Z,64.96
2022-10-18T02:54:20.233Z,64.79
2022-10-18T02:56:49.538Z,64.92
2022-10-18T02:59:17.265Z,64.84
2022-10-18T03:01:48.074Z,64.96
2022-10-18T03:04:15.971Z,65.11
2022-10-18T03:06:44.231Z,65.07
2022-10-18T03:09:12.045Z,65.03
2022-10-18T03:11:39.745Z,65.26
2022-10-18T03:14:07.550Z,65.03
2022-10-18T03:16:35.378Z,65.04
2022-10-18T03:19:03.523Z,65.30
2022-10-18T03:21:31.294Z,65.21
2022-10-18T03:23:59.864Z,65.24
2022-10-18T03:26:27.602Z,65.35
2022-10-18T03:28:55.919Z,65.29
2022-10-18T03:31:23.917Z,65.31
2022-10-18T03:33:53.409Z,65.27
2022-10-18T03:36:21.498Z,65.46
2022-10-18T03:38:49.238Z,65.36
2022-10-18T03:41:16.958Z,65.43
2022-10-18T03:43:44.825Z,65.37
2022-10-18T03:46:13.002Z,65.37
2022-10-18T03:48:41.304Z,65.41
2022-10-18T03:51:10.003Z,65.49
2022-10-18T03:53:37.769Z,65.50
2022-10-18T03:56:06.660Z,65.58
2022-10-18T04:01:07.322Z,65.51
2022-10-18T04:03:35.168Z,65.60
2022-10-18T04:06:03.758Z,65.65
2022-10-18T04:08:31.513Z,65.76
2022-10-18T04:10:59.279Z,65.76
2022-10-18T04:13:27.387Z,65.83
2022-10-18T04:15:55.116Z,65.76
2022-10-18T04:18:22.851Z,65.77
2022-10-18T04:20:50.998Z,65.87
2022-10-18T04:23:18.802Z,65.77
2022-10-18T04:25:46.552Z,65.72
2022-10-18T04:28:15.609Z,65.96
2022-10-18T04:30:43.755Z,65.97
2022-10-18T04:33:11.475Z,65.92
2022-10-18T04:35:39.258Z,65.95
2022-10-18T04:38:07.034Z,65.96
2022-10-18T04:40:34.880Z,65.97
2022-10-18T04:43:02.860Z,65.87
2022-10-18T04:45:30.566Z,65.96
2022-10-18T04:47:58.307Z,65.89
2022-10-18T04:50:26.053Z,66.03
2022-10-18T04:52:55.025Z,65.97
2022-10-18T04:55:22.900Z,65.95
2022-10-18T04:57:51.093Z,66.02
2022-10-18T05:00:19.131Z,66.20
2022-10-18T05:02:47.039Z,66.19
2022-10-18T05:05:14.917Z,66.16
2022-10-18T05:07:42.701Z,66.06
2022-10-18T05:10:10.676Z,66.13
2022-10-18T05:12:38.838Z,66.17
2022-10-18T05:15:07.224Z,66.07
2022-10-18T05:17:35.405Z,66.19
2022-10-18T05:20:04.104Z,66.22
2022-10-18T05:22:33.198Z,66.21
2022-10-18T05:25:01.189Z,66.20
2022-10-18T05:27:29.701Z,66.18
2022-10-18T05:29:59.970Z,66.33
2022-10-18T05:32:31.297Z,66.39
2022-10-18T05:35:00.004Z,66.34
2022-10-18T05:37:28.499Z,66.28
2022-10-18T05:39:56.328Z,66.43
2022-10-18T05:42:24.237Z,66.38
2022-10-18T05:44:52.037Z,66.35
2022-10-18T05:47:19.771Z,67.31
2022-10-18T05:49:47.897Z,67.80
2022-10-18T05:52:17.325Z,67.85
2022-10-18T05:54:45.103Z,67.53
2022-10-18T05:57:13.375Z,67.35
2022-10-18T05:59:41.144Z,67.23
2022-10-18T06:02:12.260Z,67.00
2022-10-18T06:04:40.020Z,66.97
2022-10-18T06:07:10.105Z,66.63
2022-10-18T06:09:38.623Z,66.08
2022-10-18T06:12:08.981Z,66.00
2022-10-18T06:14:37.595Z,65.92
2022-10-18T06:17:05.720Z,65.79
2022-10-18T06:19:33.470Z,65.96
2022-10-18T06:22:01.609Z,65.99
2022-10-18T06:24:29.381Z,65.97
2022-10-18T06:26:57.917Z,65.91
2022-10-18T06:29:25.698Z,66.07
2022-10-18T06:31:53.584Z,66.02
2022-10-18T06:34:21.579Z,65.81
2022-10-18T06:36:49.306Z,65.93
2022-10-18T06:39:17.013Z,65.87
2022-10-18T06:41:44.705Z,65.86
2022-10-18T06:44:21.145Z,65.66
2022-10-18T06:46:51.670Z,65.81
2022-10-18T06:49:20.289Z,65.83
2022-10-18T06:51:49.349Z,65.55
2022-10-18T06:54:18.390Z,65.75
2022-10-18T06:56:48.160Z,65.75
2022-10-18T06:59:16.048Z,65.89
2022-10-18T07:01:43.918Z,65.94
2022-10-18T07:04:12.113Z,65.71
2022-10-18T07:06:41.248Z,65.65
2022-10-18T07:09:09.131Z,65.67
2022-10-18T07:11:36.971Z,65.55
2022-10-18T07:14:05.320Z,65.53
2022-10-18T07:16:34.510Z,65.38
2022-10-18T07:19:02.273Z,65.46
2022-10-18T07:21:30.163Z,65.45
2022-10-18T07:23:57.854Z,65.35
2022-10-18T07:26:31.424Z,65.25
2022-10-18T07:29:04.792Z,64.96
2022-10-18T07:31:33.543Z,64.78
2022-10-18T07:34:03.685Z,65.84
2022-10-18T07:36:32.034Z,66.04
2022-10-18T07:39:00.051Z,65.96
2022-10-18T07:41:29.395Z,65.44
2022-10-18T07:43:59.189Z,64.89
2022-10-18T07:46:27.057Z,64.46
2022-10-18T07:48:54.918Z,64.31
2022-10-18T07:51:23.522Z,64.22
2022-10-18T07:53:51.472Z,64.14
2022-10-18T07:56:21.946Z,63.89
2022-10-18T07:58:58.870Z,63.61
2022-10-18T08:01:31.849Z,63.61
2022-10-18T08:04:06.203Z,63.64
2022-10-18T08:06:34.801Z,63.23
2022-10-18T08:09:03.142Z,63.27
2022-10-18T08:11:31.041Z,63.14
2022-10-18T08:13:59.250Z,63.13
2022-10-18T08:16:28.733Z,63.14
2022-10-18T08:18:58.249Z,62.95
2022-10-18T08:21:27.913Z,62.80
2022-10-18T08:23:55.766Z,62.89
2022-10-18T08:26:24.039Z,62.67
2022-10-18T08:29:10.320Z,62.63
2022-10-18T08:31:40.607Z,62.47
2022-10-18T08:34:08.391Z,62.15
2022-10-18T08:36:37.087Z,62.21
2022-10-18T08:39:04.876Z,62.11
2022-10-18T08:41:38.550Z,61.93
2022-10-18T08:44:10.655Z,61.82
2022-10-18T08:46:44.356Z,61.83
2022-10-18T08:49:31.975Z,61.64
2022-10-18T08:52:00.049Z,61.65
2022-10-18T08:54:36.695Z,61.65
2022-10-18T08:57:13.069Z,61.48
2022-10-18T08:59:42.491Z,61.61
2022-10-18T09:02:22.655Z,61.52
2022-10-18T09:05:20.438Z,61.63
2022-10-18T09:08:11.674Z,61.29
2022-10-18T09:11:01.328Z,61.08
2022-10-18T09:14:07.189Z,61.20
2022-10-18T09:16:40.872Z,61.09
2022-10-18T09:19:35.299Z,60.68
2022-10-18T09:22:13.720Z,60.76
2022-10-18T09:24:52.906Z,60.54
2022-10-18T09:27:30.086Z,60.40
2022-10-18T09:30:14.554Z,60.26
2022-10-18T09:33:28.927Z,60.11
2022-10-18T09:36:04.052Z,59.91
2022-10-18T09:38:39.015Z,60.01
2022-10-18T09:41:19.299Z,59.94
2022-10-18T09:44:10.682Z,59.52
2022-10-18T09:46:49.363Z,59.28
2022-10-18T09:49:24.304Z,59.26
2022-10-18T09:51:54.665Z,59.29
2022-10-18T09:54:33.930Z,59.18
2022-10-18T09:57:47.115Z,58.77
2022-10-18T10:00:21.205Z,58.66
2022-10-18T10:02:49.095Z,58.31
2022-10-18T10:05:17.202Z,58.24
2022-10-18T10:07:47.785Z,58.08
2022-10-18T10:10:15.606Z,58.00
2022-10-18T10:12:46.755Z,58.00
2022-10-18T10:15:23.289Z,57.87
2022-10-18T10:18:04.537Z,57.73
2022-10-18T10:20:57.495Z,57.42
2022-10-18T10:23:29.492Z,57.31
2022-10-18T10:26:14.486Z,57.21
2022-10-18T10:28:48.960Z,57.10
2022-10-18T10:31:34.598Z,56.92
2022-10-18T10:34:05.265Z,56.91
2022-10-18T10:36:35.217Z,56.73
2022-10-18T10:39:08.626Z,56.40
2022-10-18T10:41:37.978Z,56.28
2022-10-18T10:44:16.771Z,56.34
2022-10-18T10:46:44.838Z,56.12
2022-10-18T10:49:41.387Z,56.01
2022-10-18T10:52:27.436Z,55.84
2022-10-18T10:55:17.024Z,55.77
2022-10-18T10:57:49.088Z,55.71
2022-10-18T11:00:39.789Z,55.48
2022-10-18T11:03:31.179Z,55.55
2022-10-18T11:06:01.037Z,55.33
2022-10-18T11:08:38.952Z,55.24
2022-10-18T11:11:28.700Z,55.13
2022-10-18T11:14:25.142Z,54.99
2022-10-18T11:17:04.202Z,54.83
2022-10-18T11:20:18.439Z,54.79
2022-10-18T11:22:53.137Z,54.58
2022-10-18T11:25:24.906Z,54.76
2022-10-18T11:28:11.316Z,54.62
2022-10-18T11:30:46.724Z,54.65
2022-10-18T11:34:07.118Z,54.51
2022-10-18T11:36:54.759Z,54.39
2022-10-18T11:39:39.272Z,54.36
2022-10-18T11:42:24.692Z,54.35
2022-10-18T11:45:25.191Z,54.30
2022-10-18T11:48:20.467Z,54.28
2022-10-18T11:50:57.868Z,54.13
2022-10-18T11:53:38.315Z,54.16
2022-10-18T11:56:29.326Z,54.40
2022-10-18T11:59:16.475Z,54.37
2022-10-18T12:02:11.517Z,54.19
2022-10-18T12:05:05.147Z,54.01
2022-10-18T12:07:47.605Z,54.09
2022-10-18T12:10:31.472Z,54.09
2022-10-18T12:13:16.577Z,54.09
2022-10-18T12:15:45.742Z,54.09
2022-10-18T12:18:18.889Z,54.17
2022-10-18T12:20:50.607Z,54.12
2022-10-18T12:23:58.557Z,54.15
2022-10-18T12:26:28.571Z,54.02
2022-10-18T12:29:17.164Z,54.26
2022-10-18T12:32:01.825Z,54.32
2022-10-18T12:34:45.137Z,54.19
2022-10-18T12:37:38.169Z,54.08
2022-10-18T12:40:18.553Z,54.19
2022-10-18T12:42:52.456Z,54.28
2022-10-18T12:45:35.143Z,54.38
2022-10-18T12:48:06.929Z,54.37
2022-10-18T12:50:37.737Z,54.30
2022-10-18T12:53:10.466Z,54.34
2022-10-18T12:55:41.219Z,54.20
2022-10-18T12:58:18.066Z,54.14
2022-10-18T13:00:47.515Z,54.15
2022-10-18T13:03:27.369Z,54.15
2022-10-18T13:05:58.830Z,53.91
2022-10-18T13:08:27.752Z,54.09
2022-10-18T13:11:08.567Z,54.30
2022-10-18T13:14:19.829Z,54.34
2022-10-18T13:17:06.930Z,54.39
2022-10-18T13:19:49.006Z,54.58
2022-10-18T13:22:38.681Z,54.30
2022-10-18T13:25:28.698Z,54.15
2022-10-18T13:28:14.048Z,54.05
2022-10-18T13:31:21.236Z,54.29
2022-10-18T13:33:49.529Z,54.17
2022-10-18T13:36:44.908Z,54.21
2022-10-18T13:39:20.821Z,54.33
2022-10-18T13:41:49.935Z,54.67
2022-10-18T13:44:37.955Z,55.24
2022-10-18T13:47:11.390Z,56.23
2022-10-18T13:49:39.113Z,57.13
2022-10-18T13:52:47.622Z,57.72
2022-10-18T13:55:29.752Z,58.22
2022-10-18T13:58:16.928Z,58.80
2022-10-18T14:01:06.478Z,59.44
2022-10-18T14:03:57.746Z,60.11
2022-10-18T14:06:37.360Z,60.43
2022-10-18T14:09:26.262Z,60.86
2022-10-18T14:12:21.638Z,61.36
2022-10-18T14:14:59.881Z,61.63
2022-10-18T14:17:44.299Z,61.88
2022-10-18T14:20:16.036Z,62.49
2022-10-18T14:22:49.945Z,62.91
2022-10-18T14:25:31.546Z,63.29
2022-10-18T14:28:58.525Z,63.64
2022-10-18T14:31:28.325Z,63.99
2022-10-18T14:33:58.728Z,64.25
2022-10-18T14:36:42.533Z,64.66
2022-10-18T14:39:22.866Z,64.81
2022-10-18T14:41:54.090Z,65.07
2022-10-18T14:44:30.859Z,65.60
2022-10-18T14:47:01.093Z,65.91
2022-10-18T14:49:29.740Z,66.00
2022-10-18T14:52:01.149Z,66.51
2022-10-18T14:54:36.235Z,66.70
2022-10-18T14:57:06.013Z,67.14
2022-10-18T14:59:44.908Z,67.13
2022-10-18T15:02:23.737Z,67.54
2022-10-18T15:04:57.806Z,68.35
2022-10-18T15:07:29.332Z,68.41
2022-10-18T15:10:00.636Z,68.89
2022-10-18T15:12:36.950Z,69.13
2022-10-18T15:15:22.031Z,69.55
2022-10-18T15:17:51.469Z,69.98
2022-10-18T15:20:25.265Z,70.22
2022-10-18T15:22:53.105Z,70.28
2022-10-18T15:25:31.774Z,70.65
2022-10-18T15:28:02.872Z,70.75
2022-10-18T15:30:41.254Z,71.04
2022-10-18T15:33:22.439Z,70.98
2022-10-18T15:35:52.167Z,71.23
2022-10-18T15:38:36.760Z,71.54
2022-10-18T15:41:56.272Z,71.44
2022-10-18T15:44:34.795Z,71.62
2022-10-18T15:47:21.024Z,71.65
2022-10-18T15:49:54.695Z,71.60
2022-10-18T15:52:38.523Z,71.80
2022-10-18T15:55:26.264Z,71.83
2022-10-18T15:57:54.191Z,71.72
2022-10-18T16:00:22.265Z,71.82
2022-10-18T16:02:50.011Z,72.02
2022-10-18T16:05:19.176Z,72.19
2022-10-18T16:07:52.365Z,72.37
2022-10-18T16:10:21.272Z,72.56
2022-10-18T16:12:49.508Z,72.60
2022-10-18T16:15:17.985Z,72.60
2022-10-18T16:17:45.926Z,72.77
2022-10-18T16:20:24.836Z,72.91
2022-10-18T16:22:52.601Z,73.30
2022-10-18T16:25:20.616Z,73.40
2022-10-18T16:27:48.532Z,73.37
2022-10-18T16:30:20.166Z,73.39
2022-10-18T16:32:49.056Z,73.63
2022-10-18T16:35:16.965Z,73.77
2022-10-18T16:37:44.759Z,73.71
2022-10-18T16:40:24.053Z,73.86
2022-10-18T16:42:52.558Z,73.90
2022-10-18T16:45:20.273Z,73.82
2022-10-18T16:47:48.051Z,73.92
2022-10-18T16:50:18.565Z,74.03
2022-10-18T16:52:46.359Z,74.18
2022-10-18T16:55:17.245Z,74.47
2022-10-18T16:57:45.647Z,74.52
2022-10-18T17:00:18.520Z,74.67
2022-10-18T17:02:48.176Z,74.93
2022-10-18T17:05:18.697Z,75.10
2022-10-18T17:07:47.035Z,75.18
2022-10-18T17:10:18.013Z,75.37
2022-10-18T17:12:46.642Z,75.66
2022-10-18T17:15:14.358Z,75.86
2022-10-18T17:17:42.178Z,75.75
2022-10-18T17:20:22.829Z,76.19
2022-10-18T17:22:51.011Z,76.24
2022-10-18T17:25:21.883Z,76.24
2022-10-18T17:27:51.104Z,76.37
2022-10-18T17:30:19.243Z,76.59
2022-10-18T17:32:47.194Z,76.69
2022-10-18T17:35:14.948Z,77.09
2022-10-18T17:37:45.347Z,77.21
2022-10-18T17:40:16.527Z,77.22
2022-10-18T17:42:45.194Z,77.54
2022-10-18T17:45:12.865Z,77.64
2022-10-18T17:47:40.558Z,77.82
2022-10-18T17:50:08.703Z,77.98
2022-10-18T17:55:12.446Z,78.07
2022-10-18T17:57:41.827Z,78.25
2022-10-18T18:00:12.170Z,78.23
2022-10-18T18:02:41.865Z,78.52
2022-10-18T18:05:12.784Z,78.67
2022-10-18T18:07:40.777Z,78.50
2022-10-18T18:10:09.489Z,78.68
2022-10-18T18:12:40.069Z,78.82
2022-10-18T18:15:08.180Z,78.97
2022-10-18T18:17:56.033Z,79.02
2022-10-18T18:20:25.142Z,79.04
2022-10-18T18:22:53.145Z,79.10
2022-10-18T18:25:21.444Z,79.11
2022-10-18T18:27:50.193Z,79.25
2022-10-18T18:30:18.660Z,79.41
2022-10-18T18:32:47.716Z,79.57
2022-10-18T18:35:15.606Z,79.54
2022-10-18T18:37:43.791Z,79.64
2022-10-18T18:40:11.786Z,79.65
2022-10-18T18:42:40.696Z,79.82
2022-10-18T18:45:08.568Z,79.96
2022-10-18T18:47:36.740Z,79.77
2022-10-18T18:50:04.870Z,79.87
2022-10-18T18:52:32.880Z,79.99
2022-10-18T18:55:01.087Z,80.12
2022-10-18T18:57:28.972Z,80.14
2022-10-18T18:59:56.703Z,80.22
2022-10-18T19:02:25.142Z,80.42
2022-10-18T19:04:52.924Z,80.29
2022-10-18T19:07:21.857Z,80.39
2022-10-18T19:09:54.763Z,80.50
2022-10-18T19:12:23.672Z,80.67
2022-10-18T19:14:51.409Z,80.61
2022-10-18T19:17:20.215Z,80.57
2022-10-18T19:19:48.735Z,80.56
2022-10-18T19:22:16.923Z,80.71
2022-10-18T19:24:45.761Z,80.89
2022-10-18T19:27:15.131Z,80.81
2022-10-18T19:29:44.179Z,80.85
2022-10-18T19:32:15.765Z,80.90
2022-10-18T19:34:46.718Z,80.93
2022-10-18T19:37:16.188Z,81.12
2022-10-18T19:39:44.220Z,81.17
2022-10-18T19:42:15.766Z,81.26
2022-10-18T19:44:46.601Z,81.15
2022-10-18T19:47:17.459Z,81.17
2022-10-18T19:49:45.477Z,81.31
2022-10-18T19:52:13.446Z,81.27
2022-10-18T19:54:42.641Z,81.36
2022-10-18T19:57:11.523Z,81.47
2022-10-18T20:02:15.275Z,81.67
2022-10-18T20:04:42.994Z,81.53
2022-10-18T20:07:10.876Z,81.58
2022-10-18T20:09:39.777Z,81.60
2022-10-18T20:12:07.629Z,81.57
2022-10-18T20:14:36.024Z,81.64
2022-10-18T20:17:03.988Z,81.73
2022-10-18T20:19:32.523Z,81.94
2022-10-18T20:22:00.285Z,81.96
2022-10-18T20:24:28.329Z,81.77
2022-10-18T20:26:56.021Z,81.76
2022-10-18T20:29:25.515Z,81.84
2022-10-18T20:31:55.856Z,81.78
2022-10-18T20:34:26.111Z,81.73
2022-10-18T20:36:55.051Z,81.74
2022-10-18T20:39:23.386Z,81.81
2022-10-18T20:41:51.393Z,82.02
2022-10-18T20:44:20.965Z,82.15
2022-10-18T20:46:48.765Z,81.99
2022-10-18T20:49:17.234Z,82.05
2022-10-18T20:51:45.712Z,82.16
2022-10-18T20:54:16.474Z,82.14
2022-10-18T20:56:45.656Z,82.24
2022-10-18T20:59:14.134Z,82.55
2022-10-18T21:01:42.826Z,82.48
2022-10-18T21:04:10.833Z,82.73
2022-10-18T21:06:41.767Z,82.93
2022-10-18T21:09:28.757Z,83.06
2022-10-18T21:11:56.507Z,83.19
2022-10-18T21:14:24.966Z,83.21
2022-10-18T21:16:53.335Z,83.35
2022-10-18T21:19:25.183Z,83.37
2022-10-18T21:21:56.218Z,83.49
2022-10-18T21:24:26.189Z,83.46
2022-10-18T21:26:54.893Z,83.54
2022-10-18T21:29:27.259Z,83.61
2022-10-18T21:31:58.097Z,83.74
2022-10-18T21:34:26.363Z,83.71
2022-10-18T21:36:54.211Z,83.58
2022-10-18T21:41:52.245Z,83.84
2022-10-18T21:44:20.304Z,83.73
2022-10-18T21:46:48.062Z,83.93
2022-10-18T21:49:16.728Z,84.13
2022-10-18T21:51:44.619Z,84.17
2022-10-18T21:54:15.066Z,84.24
2022-10-18T21:56:43.542Z,84.33
2022-10-18T21:59:14.134Z,84.45
2022-10-18T22:01:43.742Z,84.42
2022-10-18T22:04:23.892Z,84.32
2022-10-18T22:06:52.010Z,84.50
2022-10-18T22:09:21.909Z,84.72
2022-10-18T22:11:53.122Z,84.63
2022-10-18T22:14:22.137Z,84.73
2022-10-18T22:16:50.185Z,84.82
2022-10-18T22:19:18.123Z,84.59
2022-10-18T22:21:45.911Z,84.88
2022-10-18T22:24:14.059Z,85.00
2022-10-18T22:26:44.891Z,85.02
2022-10-18T22:29:15.882Z,85.04
2022-10-18T22:31:49.566Z,85.02
2022-10-18T22:34:20.773Z,84.89
2022-10-18T22:36:48.770Z,85.11
2022-10-18T22:39:16.976Z,85.15
2022-10-18T22:41:45.379Z,85.28
2022-10-18T22:44:15.133Z,85.50
2022-10-18T22:46:43.133Z,85.55
2022-10-18T22:49:11.936Z,85.36
2022-10-18T22:51:40.351Z,85.27
2022-10-18T22:54:08.939Z,85.29
2022-10-18T22:56:36.684Z,85.34
2022-10-18T22:59:04.513Z,85.37
2022-10-18T23:01:32.258Z,85.26
2022-10-18T23:04:00.793Z,85.54
2022-10-18T23:06:31.765Z,85.58
2022-10-18T23:09:01.448Z,85.49
2022-10-18T23:11:29.631Z,85.51
2022-10-18T23:13:57.465Z,85.45
2022-10-18T23:16:25.405Z,85.28
2022-10-18T23:18:56.905Z,85.29
2022-10-18T23:21:28.056Z,85.42
2022-10-18T23:23:58.912Z,85.53
2022-10-18T23:26:28.128Z,85.47
2022-10-18T23:28:58.108Z,85.31
2022-10-18T23:31:33.418Z,85.35
2022-10-18T23:34:04.330Z,85.41
2022-10-18T23:36:33.843Z,85.36
2022-10-18T23:39:02.879Z,85.35
2022-10-18T23:41:30.830Z,85.39
2022-10-18T23:43:58.661Z,85.37
2022-10-18T23:46:26.501Z,85.33
2022-10-18T23:48:54.728Z,85.33
2022-10-18T23:51:22.767Z,85.32
2022-10-18T23:53:50.531Z,85.41
2022-10-18T23:56:18.328Z,85.55
2022-10-18T23:58:46.420Z,85.51
